createdAt,value
2023-03-31T00:01:08.425Z,62.90
2023-03-31T00:03:39.150Z,62.70
2023-03-31T00:06:04.301Z,62.10
2023-03-31T00:08:30.843Z,62.80
2023-03-31T00:10:56.106Z,63.10
2023-03-31T00:13:20.724Z,63.40
2023-03-31T00:15:46.250Z,62.30
2023-03-31T00:18:10.792Z,62.70
2023-03-31T00:20:38.212Z,62.50
2023-03-31T00:23:03.017Z,62.50
2023-03-31T00:25:27.550Z,62.70
2023-03-31T00:27:52.889Z,63.00
2023-03-31T00:30:17.948Z,62.30
2023-03-31T00:32:42.606Z,61.80
2023-03-31T00:35:08.904Z,61.90
2023-03-31T00:37:34.946Z,62.20
2023-03-31T00:39:59.908Z,62.10
2023-03-31T00:42:24.645Z,62.40
2023-03-31T00:45:34.034Z,62.80
2023-03-31T00:48:06.052Z,62.90
2023-03-31T00:50:36.234Z,63.30
2023-03-31T00:53:07.563Z,62.50
2023-03-31T00:55:38.812Z,62.40
2023-03-31T00:58:04.833Z,62.70
2023-03-31T01:00:30.298Z,62.30
2023-03-31T01:02:59.327Z,62.40
2023-03-31T01:05:28.850Z,62.00
2023-03-31T01:07:54.365Z,62.30
2023-03-31T01:10:20.652Z,62.80
2023-03-31T01:12:50.327Z,63.80
2023-03-31T01:15:16.899Z,64.70
2023-03-31T01:17:45.022Z,64.60
2023-03-31T01:20:19.369Z,65.50
2023-03-31T01:23:17.408Z,65.90
2023-03-31T01:26:09.366Z,65.50
2023-03-31T01:28:40.263Z,65.40
2023-03-31T01:31:30.423Z,65.00
2023-03-31T01:34:32.645Z,65.10
2023-03-31T01:37:31.628Z,65.10
2023-03-31T01:40:37.985Z,65.10
2023-03-31T01:43:11.330Z,65.80
2023-03-31T01:45:52.961Z,65.80
2023-03-31T01:48:21.354Z,66.00
2023-03-31T01:50:51.965Z,66.80
2023-03-31T01:53:22.987Z,67.10
2023-03-31T01:55:57.371Z,66.70
2023-03-31T01:58:27.567Z,66.90
2023-03-31T02:00:57.109Z,66.20
2023-03-31T02:03:25.830Z,66.10
2023-03-31T02:05:54.488Z,66.10
2023-03-31T02:08:24.231Z,66.10
2023-03-31T02:10:50.423Z,65.50
2023-03-31T02:13:17.910Z,65.60
2023-03-31T02:15:49.848Z,66.10
2023-03-31T02:18:18.715Z,66.20
2023-03-31T02:20:46.371Z,66.10
2023-03-31T02:23:13.395Z,66.00
2023-03-31T02:25:46.292Z,65.60
2023-03-31T02:28:15.460Z,66.00
2023-03-31T02:30:48.932Z,66.40
2023-03-31T02:33:13.553Z,65.90
2023-03-31T02:35:38.873Z,65.40
2023-03-31T02:38:06.856Z,65.00
2023-03-31T02:40:31.519Z,65.00
2023-03-31T02:42:57.276Z,65.30
2023-03-31T02:45:43.553Z,65.20
2023-03-31T02:48:14.308Z,65.00
2023-03-31T02:50:56.825Z,64.70
2023-03-31T02:53:29.124Z,64.60
2023-03-31T02:56:07.735Z,64.60
2023-03-31T02:58:53.136Z,64.80
2023-03-31T03:01:49.844Z,65.00
2023-03-31T03:04:36.927Z,65.90
2023-03-31T03:07:06.963Z,66.20
2023-03-31T03:09:42.060Z,66.70
2023-03-31T03:12:14.517Z,66.60
2023-03-31T03:14:45.726Z,66.70
2023-03-31T03:17:12.033Z,66.90
2023-03-31T03:19:37.846Z,67.70
2023-03-31T03:22:02.564Z,68.00
2023-03-31T03:24:29.896Z,68.50
2023-03-31T03:26:55.401Z,68.70
2023-03-31T03:29:20.025Z,69.00
2023-03-31T03:31:44.638Z,69.60
2023-03-31T03:34:09.704Z,69.40
2023-03-31T03:36:35.801Z,69.00
2023-03-31T03:39:00.406Z,69.10
2023-03-31T03:41:25.001Z,68.70
2023-03-31T03:43:49.617Z,68.70
2023-03-31T03:46:14.165Z,68.40
2023-03-31T03:48:40.016Z,69.00
2023-03-31T03:51:04.915Z,69.30
2023-03-31T03:53:31.041Z,69.40
2023-03-31T03:55:55.619Z,69.30
2023-03-31T03:58:20.358Z,69.20
2023-03-31T04:00:45.919Z,69.20
2023-03-31T04:03:12.282Z,69.40
2023-03-31T04:05:37.290Z,69.00
2023-03-31T04:08:01.858Z,68.50
2023-03-31T04:10:27.887Z,68.80
2023-03-31T04:12:52.509Z,68.90
2023-03-31T04:15:17.485Z,68.80
2023-03-31T04:17:42.148Z,69.00
2023-03-31T04:20:11.765Z,69.50
2023-03-31T04:22:41.002Z,69.60
2023-03-31T04:25:15.010Z,69.60
2023-03-31T04:27:46.709Z,70.40
2023-03-31T04:30:12.660Z,70.00
2023-03-31T04:32:37.185Z,70.80
2023-03-31T04:35:03.791Z,70.30
2023-03-31T04:37:34.722Z,70.60
2023-03-31T04:40:03.921Z,70.90
2023-03-31T04:42:28.653Z,70.80
2023-03-31T04:44:54.667Z,71.10
2023-03-31T04:47:19.166Z,70.40
2023-03-31T04:49:43.739Z,70.80
2023-03-31T04:52:08.182Z,71.00
2023-03-31T04:54:32.795Z,72.20
2023-03-31T04:56:57.421Z,72.90
2023-03-31T04:59:22.084Z,72.70
2023-03-31T05:01:48.220Z,71.80
2023-03-31T05:04:12.881Z,71.80
2023-03-31T05:06:37.346Z,72.00
2023-03-31T05:09:02.176Z,72.70
2023-03-31T05:11:27.590Z,72.90
2023-03-31T05:13:52.209Z,73.10
2023-03-31T05:16:17.562Z,73.40
2023-03-31T05:18:43.821Z,73.70
2023-03-31T05:21:13.142Z,74.90
2023-03-31T05:23:37.668Z,75.90
2023-03-31T05:26:02.012Z,76.30
2023-03-31T05:28:26.601Z,77.10
2023-03-31T05:30:51.231Z,79.90
2023-03-31T05:33:15.891Z,80.90
2023-03-31T05:35:41.856Z,81.30
2023-03-31T05:38:06.610Z,83.60
2023-03-31T05:40:31.078Z,85.30
2023-03-31T05:42:55.575Z,87.00
2023-03-31T05:45:20.138Z,88.30
2023-03-31T05:47:44.664Z,90.20
2023-03-31T05:50:09.879Z,90.70
2023-03-31T05:52:36.626Z,91.30
2023-03-31T05:55:01.060Z,91.80
2023-03-31T05:57:26.130Z,91.70
2023-03-31T05:59:50.600Z,92.90
2023-03-31T06:02:15.647Z,93.70
2023-03-31T06:04:40.194Z,94.40
2023-03-31T06:07:05.652Z,95.90
2023-03-31T06:09:31.578Z,96.50
2023-03-31T06:11:56.358Z,96.60
2023-03-31T06:14:20.824Z,98.30
2023-03-31T06:16:47.752Z,99.20
2023-03-31T06:19:12.202Z,99.90
2023-03-31T06:21:36.637Z,99.90
2023-03-31T06:24:01.212Z,99.90
2023-03-31T06:26:27.548Z,99.90
2023-03-31T06:28:52.131Z,99.90
2023-03-31T06:31:19.032Z,99.90
2023-03-31T06:33:44.740Z,99.90
2023-03-31T06:36:10.232Z,99.90
2023-03-31T06:38:35.278Z,99.90
2023-03-31T06:40:59.942Z,99.90
2023-03-31T06:43:25.973Z,99.90
2023-03-31T06:45:52.565Z,99.90
2023-03-31T06:48:18.428Z,99.90
2023-03-31T06:50:43.438Z,99.90
2023-03-31T06:53:07.927Z,99.90
2023-03-31T06:55:33.897Z,99.90
2023-03-31T06:57:58.552Z,99.90
2023-03-31T07:00:26.036Z,99.90
2023-03-31T07:02:50.741Z,99.90
2023-03-31T07:05:15.860Z,99.90
2023-03-31T07:07:40.393Z,99.90
2023-03-31T07:10:05.378Z,99.90
2023-03-31T07:12:30.578Z,99.90
2023-03-31T07:14:55.109Z,99.90
2023-03-31T07:17:21.192Z,99.90
2023-03-31T07:19:48.286Z,99.90
2023-03-31T07:22:12.685Z,99.90
2023-03-31T07:24:40.014Z,99.90
2023-03-31T07:27:06.680Z,99.90
2023-03-31T07:29:31.695Z,99.90
2023-03-31T07:31:56.439Z,99.90
2023-03-31T07:34:22.382Z,99.90
2023-03-31T07:36:46.922Z,99.90
2023-03-31T07:39:11.341Z,99.90
2023-03-31T07:41:36.098Z,99.90
2023-03-31T07:44:00.696Z,99.90
2023-03-31T07:46:26.749Z,99.90
2023-03-31T07:48:52.655Z,99.90
2023-03-31T07:51:21.622Z,99.90
2023-03-31T07:53:46.515Z,99.90
2023-03-31T07:56:11.308Z,99.90
2023-03-31T07:58:36.288Z,99.90
2023-03-31T08:01:01.152Z,99.90
2023-03-31T08:03:25.774Z,99.90
2023-03-31T08:05:52.872Z,99.90
2023-03-31T08:08:18.886Z,99.90
2023-03-31T08:10:43.325Z,99.90
2023-03-31T08:13:07.857Z,99.90
2023-03-31T08:15:32.357Z,99.90
2023-03-31T08:17:56.937Z,99.90
2023-03-31T08:20:21.489Z,99.90
2023-03-31T08:22:46.229Z,99.90
2023-03-31T08:25:14.465Z,99.90
2023-03-31T08:27:42.602Z,99.90
2023-03-31T08:30:08.285Z,99.90
2023-03-31T08:32:35.688Z,99.90
2023-03-31T08:35:00.879Z,99.90
2023-03-31T08:37:26.014Z,99.90
2023-03-31T08:39:50.441Z,99.90
2023-03-31T08:42:19.817Z,99.90
2023-03-31T08:44:49.218Z,99.90
2023-03-31T08:47:22.824Z,99.90
2023-03-31T08:49:52.606Z,99.90
2023-03-31T08:52:21.930Z,99.90
2023-03-31T08:54:50.808Z,99.90
2023-03-31T08:57:22.084Z,99.90
2023-03-31T08:59:47.441Z,99.90
2023-03-31T09:02:21.188Z,99.90
2023-03-31T09:05:00.994Z,99.90
2023-03-31T09:07:45.593Z,99.90
2023-03-31T09:10:28.580Z,99.90
2023-03-31T09:13:01.638Z,99.90
2023-03-31T09:15:29.583Z,99.90
2023-03-31T09:17:57.928Z,99.90
2023-03-31T09:20:28.739Z,99.90
2023-03-31T09:22:58.928Z,99.90
2023-03-31T09:25:28.206Z,99.90
2023-03-31T09:27:57.239Z,99.90
2023-03-31T09:30:27.252Z,99.90
2023-03-31T09:32:56.813Z,99.90
2023-03-31T09:35:27.588Z,99.90
2023-03-31T09:37:55.293Z,99.90
2023-03-31T09:40:22.351Z,99.90
2023-03-31T09:42:48.844Z,99.90
2023-03-31T09:45:19.063Z,99.90
2023-03-31T09:47:46.364Z,99.90
2023-03-31T09:50:11.705Z,99.90
2023-03-31T09:52:39.153Z,99.90
2023-03-31T09:55:06.425Z,99.90
2023-03-31T09:57:34.091Z,99.90
2023-03-31T10:00:13.738Z,99.90
2023-03-31T10:02:41.611Z,99.90
2023-03-31T10:05:08.424Z,99.90
2023-03-31T10:07:34.012Z,99.90
2023-03-31T10:09:59.009Z,99.90
2023-03-31T10:12:26.698Z,99.90
2023-03-31T10:14:53.401Z,99.90
2023-03-31T10:17:19.422Z,99.90
2023-03-31T10:19:52.391Z,99.90
2023-03-31T10:22:18.441Z,99.90
2023-03-31T10:24:46.366Z,99.90
2023-03-31T10:27:23.004Z,99.90
2023-03-31T10:29:52.714Z,99.90
2023-03-31T10:32:25.958Z,99.90
2023-03-31T10:34:52.725Z,99.90
2023-03-31T10:37:20.958Z,99.90
2023-03-31T10:39:47.688Z,99.90
2023-03-31T10:42:12.228Z,99.90
2023-03-31T10:44:38.533Z,99.90
2023-03-31T10:47:17.507Z,99.90
2023-03-31T10:49:44.109Z,99.90
2023-03-31T10:52:20.232Z,99.90
2023-03-31T10:54:49.095Z,99.90
2023-03-31T10:57:17.170Z,99.90
2023-03-31T10:59:53.859Z,99.90
2023-03-31T11:03:04.874Z,99.90
2023-03-31T11:05:32.986Z,99.80
2023-03-31T11:08:13.043Z,99.90
2023-03-31T11:10:58.857Z,99.90
2023-03-31T11:13:27.964Z,99.90
2023-03-31T11:15:58.671Z,99.90
2023-03-31T11:18:41.317Z,99.90
2023-03-31T11:21:17.053Z,99.30
2023-03-31T11:23:47.779Z,99.50
2023-03-31T11:26:17.301Z,99.50
2023-03-31T11:28:59.055Z,99.10
2023-03-31T11:31:34.960Z,99.10
2023-03-31T11:34:29.393Z,99.00
2023-03-31T11:37:17.247Z,98.90
2023-03-31T11:39:53.285Z,99.40
2023-03-31T11:42:21.616Z,99.10
2023-03-31T11:44:53.085Z,98.40
2023-03-31T11:47:21.077Z,98.20
2023-03-31T11:49:51.253Z,98.00
2023-03-31T11:52:17.997Z,97.60
2023-03-31T11:54:49.197Z,97.40
2023-03-31T11:57:21.018Z,97.50
2023-03-31T11:59:48.638Z,96.90
2023-03-31T12:02:19.154Z,95.90
2023-03-31T12:04:49.999Z,95.20
2023-03-31T12:07:25.082Z,95.00
2023-03-31T12:09:56.913Z,94.60
2023-03-31T12:12:23.985Z,94.50
2023-03-31T12:14:53.142Z,94.00
2023-03-31T12:17:21.042Z,94.40
2023-03-31T12:19:50.062Z,93.80
2023-03-31T12:22:20.234Z,93.30
2023-03-31T12:24:44.725Z,92.90
2023-03-31T12:27:18.724Z,93.10
2023-03-31T12:29:46.727Z,92.40
2023-03-31T12:32:16.222Z,92.10
2023-03-31T12:34:47.225Z,92.40
2023-03-31T12:37:37.186Z,91.80
2023-03-31T12:40:08.187Z,91.60
2023-03-31T12:42:50.940Z,91.50
2023-03-31T12:45:25.079Z,91.20
2023-03-31T12:48:08.890Z,90.70
2023-03-31T12:50:46.810Z,90.80
2023-03-31T12:53:22.686Z,90.50
2023-03-31T12:55:52.069Z,90.40
2023-03-31T12:58:42.902Z,90.10
2023-03-31T13:01:16.821Z,90.00
2023-03-31T13:04:12.644Z,89.70
2023-03-31T13:06:57.884Z,89.60
2023-03-31T13:09:44.985Z,89.80
2023-03-31T13:12:11.018Z,88.10
2023-03-31T13:14:41.947Z,87.80
2023-03-31T13:17:17.143Z,88.10
2023-03-31T13:19:43.128Z,86.60
2023-03-31T13:22:09.172Z,87.30
2023-03-31T13:24:35.266Z,87.60
2023-03-31T13:27:01.440Z,87.00
2023-03-31T13:29:28.736Z,86.70
2023-03-31T13:32:23.673Z,85.70
2023-03-31T13:34:58.611Z,85.70
2023-03-31T13:37:45.269Z,84.50
2023-03-31T13:40:32.327Z,83.90
2023-03-31T13:43:27.354Z,83.20
2023-03-31T13:46:24.077Z,82.70
2023-03-31T13:49:04.968Z,82.80
2023-03-31T13:51:51.890Z,81.10
2023-03-31T13:55:00.875Z,81.10
2023-03-31T13:57:45.530Z,80.40
2023-03-31T14:00:22.901Z,79.90
2023-03-31T14:03:14.070Z,78.90
2023-03-31T14:05:43.584Z,79.00
2023-03-31T14:08:12.909Z,79.00
2023-03-31T14:10:40.622Z,79.00
2023-03-31T14:13:13.287Z,76.80
2023-03-31T14:15:45.327Z,76.80
2023-03-31T14:18:17.100Z,75.50
2023-03-31T14:20:57.813Z,75.80
2023-03-31T14:23:34.266Z,76.40
2023-03-31T14:26:07.389Z,75.90
2023-03-31T14:28:56.755Z,76.00
2023-03-31T14:31:35.451Z,76.70
2023-03-31T14:34:20.885Z,77.10
2023-03-31T14:36:59.508Z,78.10
2023-03-31T14:39:29.748Z,77.80
2023-03-31T14:41:57.805Z,78.00
2023-03-31T14:44:26.984Z,78.80
2023-03-31T14:46:57.689Z,78.50
2023-03-31T14:49:26.417Z,78.60
2023-03-31T14:51:54.479Z,78.50
2023-03-31T14:54:20.637Z,78.30
2023-03-31T14:56:48.778Z,78.20
2023-03-31T14:59:20.060Z,78.50
2023-03-31T15:01:47.917Z,78.20
2023-03-31T15:04:14.631Z,78.10
2023-03-31T15:06:40.077Z,78.30
2023-03-31T15:09:06.098Z,77.90
2023-03-31T15:11:31.941Z,77.50
2023-03-31T15:14:04.962Z,77.20
2023-03-31T15:16:35.011Z,77.20
2023-03-31T15:19:04.573Z,76.80
2023-03-31T15:21:32.805Z,76.70
2023-03-31T15:23:58.289Z,77.50
2023-03-31T15:26:40.577Z,77.40
2023-03-31T15:29:08.750Z,77.00
2023-03-31T15:31:33.322Z,77.60
2023-03-31T15:33:58.411Z,78.00
2023-03-31T15:36:23.752Z,78.30
2023-03-31T15:38:49.104Z,78.10
2023-03-31T15:41:14.854Z,78.10
2023-03-31T15:43:50.816Z,78.00
2023-03-31T15:46:21.220Z,77.30
2023-03-31T15:48:53.076Z,77.30
2023-03-31T15:51:21.446Z,77.10
2023-03-31T15:53:48.179Z,76.80
2023-03-31T15:56:27.230Z,76.20
2023-03-31T15:58:59.278Z,75.60
2023-03-31T16:01:25.313Z,75.80
2023-03-31T16:03:53.653Z,75.90
2023-03-31T16:06:23.825Z,75.00
2023-03-31T16:08:52.204Z,74.70
2023-03-31T16:11:21.260Z,74.50
2023-03-31T16:13:49.333Z,75.10
2023-03-31T16:16:18.953Z,75.80
2023-03-31T16:18:53.842Z,76.20
2023-03-31T16:21:26.449Z,76.20
2023-03-31T16:23:55.249Z,76.60
2023-03-31T16:26:23.398Z,76.80
2023-03-31T16:28:52.362Z,77.00
2023-03-31T16:31:34.667Z,77.30
2023-03-31T16:33:59.631Z,77.40
2023-03-31T16:36:24.367Z,77.50
2023-03-31T16:38:49.214Z,77.80
2023-03-31T16:41:15.830Z,78.20
2023-03-31T16:43:40.453Z,78.40
2023-03-31T16:46:05.147Z,78.70
2023-03-31T16:48:36.011Z,78.80
2023-03-31T16:51:04.316Z,79.10
2023-03-31T16:53:36.935Z,79.30
2023-03-31T16:56:08.583Z,80.00
2023-03-31T16:58:34.013Z,79.90
2023-03-31T17:00:59.446Z,79.50
2023-03-31T17:03:36.795Z,80.00
2023-03-31T17:06:15.288Z,80.40
2023-03-31T17:08:40.854Z,80.60
2023-03-31T17:11:08.256Z,80.70
2023-03-31T17:13:33.823Z,81.00
2023-03-31T17:16:08.788Z,81.50
2023-03-31T17:18:42.014Z,82.10
2023-03-31T17:21:10.810Z,82.30
2023-03-31T17:23:36.384Z,82.50
2023-03-31T17:26:01.101Z,82.90
2023-03-31T17:28:25.822Z,82.60
2023-03-31T17:30:50.447Z,82.80
2023-03-31T17:33:18.100Z,83.60
2023-03-31T17:35:42.750Z,83.50
2023-03-31T17:38:13.045Z,83.10
2023-03-31T17:40:40.525Z,83.50
2023-03-31T17:43:10.235Z,83.20
2023-03-31T17:45:35.070Z,83.40
2023-03-31T17:48:00.287Z,84.40
2023-03-31T17:50:24.864Z,86.80
2023-03-31T17:52:49.787Z,90.10
2023-03-31T17:55:15.729Z,90.90
2023-03-31T17:57:40.733Z,91.80
2023-03-31T18:00:09.179Z,93.10
2023-03-31T18:02:37.821Z,94.00
2023-03-31T18:05:02.577Z,95.20
2023-03-31T18:07:28.522Z,96.30
2023-03-31T18:09:53.357Z,96.90
2023-03-31T18:12:20.681Z,97.80
2023-03-31T18:14:48.926Z,98.30
2023-03-31T18:17:15.106Z,98.90
2023-03-31T18:19:39.741Z,99.20
2023-03-31T18:22:04.277Z,99.50
2023-03-31T18:24:29.104Z,99.70
2023-03-31T18:26:53.661Z,99.90
2023-03-31T18:29:19.634Z,99.90
2023-03-31T18:31:44.224Z,99.90
2023-03-31T18:34:09.143Z,99.90
2023-03-31T18:36:34.508Z,99.90
2023-03-31T18:39:00.490Z,99.90
2023-03-31T18:41:25.585Z,99.90
2023-03-31T18:43:55.794Z,99.90
2023-03-31T18:46:21.831Z,99.90
2023-03-31T18:48:46.427Z,99.90
2023-03-31T18:51:11.062Z,99.90
2023-03-31T18:53:36.200Z,99.90
2023-03-31T18:56:01.797Z,99.90
2023-03-31T18:58:28.043Z,99.90
2023-03-31T19:00:56.943Z,99.90
2023-03-31T19:03:23.237Z,99.90
2023-03-31T19:05:48.175Z,99.90
2023-03-31T19:08:14.417Z,99.90
2023-03-31T19:10:41.852Z,99.90
2023-03-31T19:13:07.991Z,99.90
2023-03-31T19:15:33.523Z,99.90
2023-03-31T19:17:58.107Z,99.90
2023-03-31T19:20:24.349Z,99.90
2023-03-31T19:22:51.078Z,99.90
2023-03-31T19:25:16.644Z,99.90
2023-03-31T19:27:44.756Z,99.90
2023-03-31T19:30:15.024Z,99.90
2023-03-31T19:32:39.977Z,99.90
2023-03-31T19:35:05.922Z,99.90
2023-03-31T19:37:34.888Z,99.90
2023-03-31T19:39:59.481Z,99.90
2023-03-31T19:42:28.045Z,99.90
2023-03-31T19:44:53.105Z,99.90
2023-03-31T19:47:20.114Z,99.90
2023-03-31T19:49:44.851Z,99.90
2023-03-31T19:52:09.435Z,99.90
2023-03-31T19:54:35.472Z,99.90
2023-03-31T19:57:00.121Z,99.90
2023-03-31T19:59:24.609Z,99.90
2023-03-31T20:01:49.295Z,99.90
2023-03-31T20:04:17.274Z,99.90
2023-03-31T20:06:41.863Z,99.90
2023-03-31T20:09:07.255Z,99.90
2023-03-31T20:11:33.610Z,99.90
2023-03-31T20:14:00.747Z,99.90
2023-03-31T20:16:27.555Z,99.90
2023-03-31T20:18:54.067Z,99.90
2023-03-31T20:21:20.678Z,99.90
2023-03-31T20:23:46.598Z,99.90
2023-03-31T20:26:13.286Z,99.90
2023-03-31T20:28:40.071Z,99.90
2023-03-31T20:31:08.725Z,99.90
2023-03-31T20:33:33.328Z,99.90
2023-03-31T20:36:06.371Z,99.90
2023-03-31T20:38:31.103Z,99.90
2023-03-31T20:40:56.126Z,99.90
2023-03-31T20:43:20.694Z,99.90
2023-03-31T20:45:46.911Z,99.90
2023-03-31T20:48:11.421Z,99.90
2023-03-31T20:50:39.465Z,99.90
2023-03-31T20:53:04.696Z,99.90
2023-03-31T20:55:29.487Z,99.90
2023-03-31T20:57:54.259Z,99.90
2023-03-31T21:00:19.149Z,99.90
2023-03-31T21:02:45.202Z,99.90
2023-03-31T21:05:10.676Z,99.90
2023-03-31T21:07:35.385Z,99.90
2023-03-31T21:10:00.713Z,99.90
2023-03-31T21:12:25.302Z,99.90
2023-03-31T21:14:50.115Z,99.90
2023-03-31T21:17:14.672Z,99.90
2023-03-31T21:19:40.678Z,99.90
2023-03-31T21:22:05.278Z,99.90
2023-03-31T21:24:29.797Z,99.90
2023-03-31T21:26:54.306Z,99.90
2023-03-31T21:29:18.895Z,99.90
2023-03-31T21:31:45.032Z,99.90
2023-03-31T21:34:09.604Z,99.90
2023-03-31T21:36:35.518Z,99.90
2023-03-31T21:39:00.002Z,99.90
2023-03-31T21:41:28.080Z,99.90
2023-03-31T21:43:53.634Z,99.90
2023-03-31T21:46:19.710Z,99.90
2023-03-31T21:48:44.456Z,99.90
2023-03-31T21:51:08.866Z,99.90
2023-03-31T21:53:34.988Z,99.90
2023-03-31T21:56:00.050Z,99.90
2023-03-31T21:58:28.780Z,99.90
2023-03-31T22:00:53.547Z,99.90
2023-03-31T22:03:27.034Z,99.90
2023-03-31T22:05:52.827Z,99.90
2023-03-31T22:08:17.209Z,99.90
2023-03-31T22:10:43.717Z,99.90
2023-03-31T22:13:08.307Z,99.90
2023-03-31T22:15:33.023Z,99.90
2023-03-31T22:17:57.767Z,99.90
2023-03-31T22:20:22.470Z,99.90
2023-03-31T22:22:47.430Z,99.90
2023-03-31T22:25:11.971Z,99.90
2023-03-31T22:27:38.868Z,99.90
2023-03-31T22:30:03.523Z,99.90
2023-03-31T22:32:28.863Z,99.90
2023-03-31T22:34:53.439Z,99.90
2023-03-31T22:37:18.009Z,99.90
2023-03-31T22:39:42.545Z,99.90
2023-03-31T22:42:07.621Z,99.90
2023-03-31T22:44:33.628Z,99.90
2023-03-31T22:46:58.327Z,99.90
2023-03-31T22:49:22.880Z,99.90
2023-03-31T22:51:47.639Z,99.90
2023-03-31T22:54:15.040Z,99.90
2023-03-31T22:56:39.461Z,99.90
2023-03-31T22:59:03.969Z,99.90
2023-03-31T23:01:30.191Z,99.90
2023-03-31T23:03:55.811Z,99.90
2023-03-31T23:06:20.573Z,99.90
2023-03-31T23:08:48.660Z,99.90
2023-03-31T23:11:14.649Z,99.90
2023-03-31T23:13:39.770Z,99.90
2023-03-31T23:16:06.858Z,99.90
2023-03-31T23:18:32.897Z,99.90
2023-03-31T23:20:57.542Z,99.90
2023-03-31T23:23:22.147Z,99.90
2023-03-31T23:25:46.704Z,99.90
2023-03-31T23:28:11.252Z,99.90
2023-03-31T23:30:35.793Z,99.90
2023-03-31T23:33:00.542Z,99.90
2023-03-31T23:35:26.481Z,99.90
2023-03-31T23:37:51.056Z,99.90
2023-03-31T23:40:15.806Z,99.90
2023-03-31T23:42:40.278Z,99.90
2023-03-31T23:45:05.082Z,99.90
2023-03-31T23:47:30.020Z,99.90
2023-03-31T23:49:56.545Z,99.90
2023-03-31T23:52:22.921Z,99.90
2023-03-31T23:54:47.471Z,99.90
2023-03-31T23:57:12.043Z,99.90
2023-03-31T23:59:36.814Z,99.90
